sensor_id;sensor_type;location;lat;lon;timestamp;P1;durP1;ratioP1;P2;durP2;ratioP2
239;SDS011;104;53.590;10.004;2024-02-14T14:54:34;15.17;;;9.60;;
239;SDS011;104;53.590;10.004;2024-02-14T14:57:01;15.10;;;9.90;;
239;SDS011;104;53.590;10.004;2024-02-14T14:59:37;22.90;;;10.30;;
239;SDS011;104;53.590;10.004;2024-02-14T15:02:12;19.37;;;11.27;;
239;SDS011;104;53.590;10.004;2024-02-14T15:04:40;15.90;;;9.97;;
239;SDS011;104;53.590;10.004;2024-02-14T15:07:09;15.20;;;10.20;;
239;SDS011;104;53.590;10.004;2024-02-14T15:09:38;20.33;;;10.83;;
239;SDS011;104;53.590;10.004;2024-02-14T15:12:19;33.27;;;12.17;;
239;SDS011;104;53.590;10.004;2024-02-14T15:14:51;18.70;;;10.00;;
239;SDS011;104;53.590;10.004;2024-02-14T15:17:18;20.17;;;10.30;;
239;SDS011;104;53.590;10.004;2024-02-14T15:19:47;17.70;;;10.67;;
239;SDS011;104;53.590;10.004;2024-02-14T15:22:15;22.97;;;11.70;;
239;SDS011;104;53.590;10.004;2024-02-14T15:24:44;18.10;;;11.20;;
239;SDS011;104;53.590;10.004;2024-02-14T15:27:12;19.20;;;10.53;;
239;SDS011;104;53.590;10.004;2024-02-14T15:29:46;19.33;;;10.40;;
239;SDS011;104;53.590;10.004;2024-02-14T15:32:31;34.93;;;15.67;;
239;SDS011;104;53.590;10.004;2024-02-14T15:35:16;29.50;;;12.10;;
239;SDS011;104;53.590;10.004;2024-02-14T15:37:43;20.87;;;10.83;;
239;SDS011;104;53.590;10.004;2024-02-14T15:40:15;19.93;;;10.33;;
239;SDS011;104;53.590;10.004;2024-02-14T15:42:42;21.27;;;10.53;;
239;SDS011;104;53.590;10.004;2024-02-14T15:45:10;22.23;;;10.10;;
239;SDS011;104;53.590;10.004;2024-02-14T15:47:47;17.60;;;9.70;;
239;SDS011;104;53.590;10.004;2024-02-14T15:50:34;15.80;;;10.37;;
239;SDS011;104;53.590;10.004;2024-02-14T15:53:02;16.10;;;9.80;;
239;SDS011;104;53.590;10.004;2024-02-14T15:55:31;20.17;;;9.97;;
239;SDS011;104;53.590;10.004;2024-02-14T15:58:18;17.73;;;10.00;;
239;SDS011;104;53.590;10.004;2024-02-14T16:00:45;14.83;;;9.70;;
239;SDS011;104;53.590;10.004;2024-02-14T16:03:13;27.63;;;10.63;;
239;SDS011;104;53.590;10.004;2024-02-14T16:05:40;20.60;;;10.73;;
239;SDS011;104;53.590;10.004;2024-02-14T16:08:13;13.43;;;9.20;;
239;SDS011;104;53.590;10.004;2024-02-14T16:10:45;18.53;;;11.37;;
239;SDS011;104;53.590;10.004;2024-02-14T16:13:15;26.43;;;13.33;;
239;SDS011;104;53.590;10.004;2024-02-14T16:15:43;14.77;;;10.30;;
239;SDS011;104;53.590;10.004;2024-02-14T16:18:10;19.93;;;10.67;;
239;SDS011;104;53.590;10.004;2024-02-14T16:20:39;20.63;;;10.60;;
239;SDS011;104;53.590;10.004;2024-02-14T16:23:08;28.90;;;11.40;;
239;SDS011;104;53.590;10.004;2024-02-14T16:25:35;19.07;;;11.00;;
239;SDS011;104;53.590;10.004;2024-02-14T16:28:05;17.70;;;10.90;;
239;SDS011;104;53.590;10.004;2024-02-14T16:30:33;22.73;;;11.17;;
239;SDS011;104;53.590;10.004;2024-02-14T16:33:00;25.10;;;11.33;;
239;SDS011;104;53.590;10.004;2024-02-14T16:35:58;22.10;;;12.13;;
239;SDS011;104;53.590;10.004;2024-02-14T16:38:22;22.40;;;11.10;;
239;SDS011;104;53.590;10.004;2024-02-14T16:40:51;18.90;;;10.80;;
239;SDS011;104;53.590;10.004;2024-02-14T16:43:23;19.73;;;10.23;;
239;SDS011;104;53.590;10.004;2024-02-14T16:45:51;16.17;;;10.27;;
239;SDS011;104;53.590;10.004;2024-02-14T16:48:18;19.13;;;10.47;;
239;SDS011;104;53.590;10.004;2024-02-14T16:50:47;24.57;;;11.77;;
239;SDS011;104;53.590;10.004;2024-02-14T16:53:14;38.47;;;15.60;;
239;SDS011;104;53.590;10.004;2024-02-14T16:55:42;26.70;;;11.63;;
239;SDS011;104;53.590;10.004;2024-02-14T16:58:09;21.83;;;11.67;;
239;SDS011;104;53.590;10.004;2024-02-14T17:00:38;19.27;;;11.80;;
239;SDS011;104;53.590;10.004;2024-02-14T17:03:06;20.63;;;11.57;;
239;SDS011;104;53.590;10.004;2024-02-14T17:05:41;23.47;;;11.00;;
239;SDS011;104;53.590;10.004;2024-02-14T17:08:08;22.10;;;12.87;;
239;SDS011;104;53.590;10.004;2024-02-14T17:10:35;26.03;;;13.33;;
239;SDS011;104;53.590;10.004;2024-02-14T17:13:03;28.73;;;14.00;;
239;SDS011;104;53.590;10.004;2024-02-14T17:15:32;33.70;;;13.97;;
239;SDS011;104;53.590;10.004;2024-02-14T17:18:01;21.40;;;12.23;;
239;SDS011;104;53.590;10.004;2024-02-14T17:20:29;29.60;;;13.93;;
239;SDS011;104;53.590;10.004;2024-02-14T17:22:57;31.90;;;15.23;;
239;SDS011;104;53.590;10.004;2024-02-14T17:25:24;25.13;;;13.67;;
239;SDS011;104;53.590;10.004;2024-02-14T17:27:52;38.03;;;18.30;;
239;SDS011;104;53.590;10.004;2024-02-14T17:30:22;24.80;;;13.77;;
239;SDS011;104;53.590;10.004;2024-02-14T17:32:49;29.90;;;13.30;;
239;SDS011;104;53.590;10.004;2024-02-14T17:35:18;36.47;;;16.97;;
239;SDS011;104;53.590;10.004;2024-02-14T17:37:45;23.27;;;12.40;;
239;SDS011;104;53.590;10.004;2024-02-14T17:40:12;25.73;;;13.87;;
239;SDS011;104;53.590;10.004;2024-02-14T17:42:40;25.67;;;14.20;;
239;SDS011;104;53.590;10.004;2024-02-14T17:45:09;27.80;;;15.53;;
239;SDS011;104;53.590;10.004;2024-02-14T17:47:36;26.13;;;13.70;;
239;SDS011;104;53.590;10.004;2024-02-14T17:50:04;22.47;;;11.63;;
239;SDS011;104;53.590;10.004;2024-02-14T17:52:33;26.07;;;13.63;;
239;SDS011;104;53.590;10.004;2024-02-14T17:55:00;38.97;;;18.93;;
239;SDS011;104;53.590;10.004;2024-02-14T17:57:28;29.57;;;15.03;;
239;SDS011;104;53.590;10.004;2024-02-14T17:59:56;22.73;;;11.40;;
239;SDS011;104;53.590;10.004;2024-02-14T18:02:24;30.57;;;14.27;;
239;SDS011;104;53.590;10.004;2024-02-14T18:04:51;30.23;;;15.70;;
239;SDS011;104;53.590;10.004;2024-02-14T18:07:19;25.60;;;13.63;;
239;SDS011;104;53.590;10.004;2024-02-14T18:09:48;33.83;;;16.47;;
239;SDS011;104;53.590;10.004;2024-02-14T18:12:15;32.53;;;15.50;;
239;SDS011;104;53.590;10.004;2024-02-14T18:14:43;28.10;;;14.70;;
239;SDS011;104;53.590;10.004;2024-02-14T18:17:10;23.10;;;12.30;;
239;SDS011;104;53.590;10.004;2024-02-14T18:19:37;37.03;;;15.23;;
239;SDS011;104;53.590;10.004;2024-02-14T18:22:06;26.47;;;14.17;;
239;SDS011;104;53.590;10.004;2024-02-14T18:24:52;34.93;;;14.43;;
239;SDS011;104;53.590;10.004;2024-02-14T18:27:19;45.97;;;21.23;;
239;SDS011;104;53.590;10.004;2024-02-14T18:29:50;28.67;;;14.90;;
239;SDS011;104;53.590;10.004;2024-02-14T18:32:17;38.37;;;15.33;;
239;SDS011;104;53.590;10.004;2024-02-14T18:34:50;41.73;;;17.10;;
239;SDS011;104;53.590;10.004;2024-02-14T18:37:34;28.40;;;14.47;;
239;SDS011;104;53.590;10.004;2024-02-14T18:40:13;28.20;;;13.67;;
239;SDS011;104;53.590;10.004;2024-02-14T18:42:48;32.17;;;15.80;;
239;SDS011;104;53.590;10.004;2024-02-14T18:45:22;27.70;;;15.03;;
239;SDS011;104;53.590;10.004;2024-02-14T18:47:56;38.63;;;19.50;;
239;SDS011;104;53.590;10.004;2024-02-14T18:50:23;43.37;;;19.57;;
239;SDS011;104;53.590;10.004;2024-02-14T18:52:51;33.73;;;17.27;;
239;SDS011;104;53.590;10.004;2024-02-14T18:55:26;27.70;;;14.60;;
239;SDS011;104;53.590;10.004;2024-02-14T18:57:53;26.90;;;13.87;;
239;SDS011;104;53.590;10.004;2024-02-14T19:00:21;35.57;;;16.83;;
239;SDS011;104;53.590;10.004;2024-02-14T19:02:48;37.20;;;16.07;;
239;SDS011;104;53.590;10.004;2024-02-14T19:05:15;37.57;;;15.67;;
239;SDS011;104;53.590;10.004;2024-02-14T19:07:43;84.33;;;30.67;;
239;SDS011;104;53.590;10.004;2024-02-14T19:10:10;41.07;;;17.80;;
239;SDS011;104;53.590;10.004;2024-02-14T19:12:39;34.50;;;17.20;;
239;SDS011;104;53.590;10.004;2024-02-14T19:15:07;43.67;;;19.37;;
239;SDS011;104;53.590;10.004;2024-02-14T19:17:37;40.73;;;20.80;;
239;SDS011;104;53.590;10.004;2024-02-14T19:20:06;29.33;;;15.37;;
239;SDS011;104;53.590;10.004;2024-02-14T19:22:50;35.53;;;16.33;;
239;SDS011;104;53.590;10.004;2024-02-14T19:25:17;50.30;;;20.57;;
239;SDS011;104;53.590;10.004;2024-02-14T19:27:46;46.70;;;20.60;;
239;SDS011;104;53.590;10.004;2024-02-14T19:30:13;32.00;;;16.40;;
239;SDS011;104;53.590;10.004;2024-02-14T19:32:40;31.80;;;16.33;;
239;SDS011;104;53.590;10.004;2024-02-14T19:35:11;34.43;;;15.60;;
239;SDS011;104;53.590;10.004;2024-02-14T19:37:38;40.33;;;19.37;;
239;SDS011;104;53.590;10.004;2024-02-14T19:40:06;35.33;;;16.80;;
239;SDS011;104;53.590;10.004;2024-02-14T19:42:35;21.40;;;13.37;;
239;SDS011;104;53.590;10.004;2024-02-14T19:45:05;23.50;;;13.23;;
239;SDS011;104;53.590;10.004;2024-02-14T19:47:33;31.27;;;15.80;;
239;SDS011;104;53.590;10.004;2024-02-14T19:50:03;31.07;;;17.17;;
239;SDS011;104;53.590;10.004;2024-02-14T19:52:32;47.00;;;18.77;;
239;SDS011;104;53.590;10.004;2024-02-14T19:55:00;28.50;;;13.43;;
239;SDS011;104;53.590;10.004;2024-02-14T19:57:27;22.17;;;13.57;;
239;SDS011;104;53.590;10.004;2024-02-14T19:59:56;23.27;;;14.00;;
239;SDS011;104;53.590;10.004;2024-02-14T20:02:25;26.50;;;13.57;;
239;SDS011;104;53.590;10.004;2024-02-14T20:04:53;30.37;;;15.93;;
239;SDS011;104;53.590;10.004;2024-02-14T20:07:20;30.40;;;16.20;;
239;SDS011;104;53.590;10.004;2024-02-14T20:09:48;34.53;;;18.40;;
239;SDS011;104;53.590;10.004;2024-02-14T20:12:16;23.07;;;13.60;;
239;SDS011;104;53.590;10.004;2024-02-14T20:14:43;26.60;;;14.10;;
239;SDS011;104;53.590;10.004;2024-02-14T20:17:11;21.50;;;13.50;;
239;SDS011;104;53.590;10.004;2024-02-14T20:19:40;29.43;;;15.50;;
239;SDS011;104;53.590;10.004;2024-02-14T20:22:07;27.97;;;14.70;;
239;SDS011;104;53.590;10.004;2024-02-14T20:24:36;25.00;;;14.23;;
239;SDS011;104;53.590;10.004;2024-02-14T20:27:03;27.63;;;15.47;;
239;SDS011;104;53.590;10.004;2024-02-14T20:29:30;31.80;;;15.80;;
239;SDS011;104;53.590;10.004;2024-02-14T20:31:58;36.97;;;18.17;;
239;SDS011;104;53.590;10.004;2024-02-14T20:34:27;40.20;;;20.27;;
239;SDS011;104;53.590;10.004;2024-02-14T20:36:56;31.37;;;17.20;;
239;SDS011;104;53.590;10.004;2024-02-14T20:39:23;26.43;;;15.00;;
239;SDS011;104;53.590;10.004;2024-02-14T20:41:51;26.97;;;15.57;;
239;SDS011;104;53.590;10.004;2024-02-14T20:44:18;26.17;;;15.63;;
239;SDS011;104;53.590;10.004;2024-02-14T20:46:46;30.53;;;16.67;;
239;SDS011;104;53.590;10.004;2024-02-14T20:49:16;35.37;;;18.77;;
239;SDS011;104;53.590;10.004;2024-02-14T20:51:43;37.07;;;18.87;;
239;SDS011;104;53.590;10.004;2024-02-14T20:54:12;30.97;;;16.63;;
239;SDS011;104;53.590;10.004;2024-02-14T20:56:40;39.00;;;20.73;;
239;SDS011;104;53.590;10.004;2024-02-14T20:59:07;47.93;;;23.00;;
239;SDS011;104;53.590;10.004;2024-02-14T21:01:34;30.20;;;17.20;;
239;SDS011;104;53.590;10.004;2024-02-14T21:04:02;30.60;;;16.27;;
239;SDS011;104;53.590;10.004;2024-02-14T21:06:29;32.03;;;16.57;;
239;SDS011;104;53.590;10.004;2024-02-14T21:08:56;30.53;;;16.73;;
239;SDS011;104;53.590;10.004;2024-02-14T21:11:25;29.93;;;15.73;;
239;SDS011;104;53.590;10.004;2024-02-14T21:13:53;28.17;;;15.70;;
239;SDS011;104;53.590;10.004;2024-02-14T21:16:20;26.37;;;15.57;;
239;SDS011;104;53.590;10.004;2024-02-14T21:18:49;34.17;;;16.13;;
239;SDS011;104;53.590;10.004;2024-02-14T21:21:16;28.40;;;16.37;;
239;SDS011;104;53.590;10.004;2024-02-14T21:23:44;31.80;;;15.50;;
239;SDS011;104;53.590;10.004;2024-02-14T21:26:11;26.90;;;15.47;;
239;SDS011;104;53.590;10.004;2024-02-14T21:28:40;27.30;;;16.37;;
239;SDS011;104;53.590;10.004;2024-02-14T21:31:07;29.03;;;16.00;;
239;SDS011;104;53.590;10.004;2024-02-14T21:33:35;37.13;;;16.10;;
239;SDS011;104;53.590;10.004;2024-02-14T21:36:02;26.33;;;15.40;;
239;SDS011;104;53.590;10.004;2024-02-14T21:38:29;33.53;;;15.77;;
239;SDS011;104;53.590;10.004;2024-02-14T21:40:56;29.87;;;15.93;;
239;SDS011;104;53.590;10.004;2024-02-14T21:43:24;32.73;;;15.60;;
239;SDS011;104;53.590;10.004;2024-02-14T21:45:52;24.00;;;15.80;;
239;SDS011;104;53.590;10.004;2024-02-14T21:48:20;26.30;;;15.43;;
239;SDS011;104;53.590;10.004;2024-02-14T21:50:47;28.03;;;14.90;;
239;SDS011;104;53.590;10.004;2024-02-14T21:53:14;23.83;;;14.83;;
239;SDS011;104;53.590;10.004;2024-02-14T21:55:42;27.17;;;15.40;;
239;SDS011;104;53.590;10.004;2024-02-14T21:58:09;26.67;;;14.90;;
239;SDS011;104;53.590;10.004;2024-02-14T22:00:36;30.63;;;16.10;;
239;SDS011;104;53.590;10.004;2024-02-14T22:03:05;26.10;;;15.40;;
239;SDS011;104;53.590;10.004;2024-02-14T22:05:32;28.37;;;16.03;;
239;SDS011;104;53.590;10.004;2024-02-14T22:08:02;32.97;;;16.93;;
239;SDS011;104;53.590;10.004;2024-02-14T22:10:29;29.60;;;16.80;;
239;SDS011;104;53.590;10.004;2024-02-14T22:12:57;27.63;;;15.73;;
239;SDS011;104;53.590;10.004;2024-02-14T22:15:24;29.90;;;15.97;;
239;SDS011;104;53.590;10.004;2024-02-14T22:17:52;32.10;;;16.10;;
239;SDS011;104;53.590;10.004;2024-02-14T22:20:20;29.27;;;16.80;;
239;SDS011;104;53.590;10.004;2024-02-14T22:22:48;31.43;;;15.60;;
239;SDS011;104;53.590;10.004;2024-02-14T22:25:15;32.10;;;17.13;;
239;SDS011;104;53.590;10.004;2024-02-14T22:27:44;28.17;;;15.83;;
239;SDS011;104;53.590;10.004;2024-02-14T22:30:12;30.20;;;15.60;;
239;SDS011;104;53.590;10.004;2024-02-14T22:32:39;32.53;;;17.40;;
239;SDS011;104;53.590;10.004;2024-02-14T22:35:07;25.50;;;15.90;;
239;SDS011;104;53.590;10.004;2024-02-14T22:37:37;29.53;;;15.83;;
239;SDS011;104;53.590;10.004;2024-02-14T22:40:05;27.70;;;15.90;;
239;SDS011;104;53.590;10.004;2024-02-14T22:42:32;36.57;;;17.23;;
239;SDS011;104;53.590;10.004;2024-02-14T22:45:00;26.93;;;16.50;;
239;SDS011;104;53.590;10.004;2024-02-14T22:47:27;27.77;;;15.60;;
239;SDS011;104;53.590;10.004;2024-02-14T22:49:55;32.40;;;15.33;;
239;SDS011;104;53.590;10.004;2024-02-14T22:52:22;28.90;;;15.40;;
239;SDS011;104;53.590;10.004;2024-02-14T22:54:51;29.23;;;15.80;;
239;SDS011;104;53.590;10.004;2024-02-14T22:57:18;26.37;;;16.00;;
239;SDS011;104;53.590;10.004;2024-02-14T22:59:46;26.20;;;16.57;;
239;SDS011;104;53.590;10.004;2024-02-14T23:02:14;26.40;;;16.43;;
239;SDS011;104;53.590;10.004;2024-02-14T23:04:51;27.27;;;15.77;;
239;SDS011;104;53.590;10.004;2024-02-14T23:07:18;28.77;;;15.40;;
239;SDS011;104;53.590;10.004;2024-02-14T23:09:46;32.83;;;16.80;;
239;SDS011;104;53.590;10.004;2024-02-14T23:12:14;28.67;;;16.77;;
239;SDS011;104;53.590;10.004;2024-02-14T23:14:43;29.57;;;16.30;;
239;SDS011;104;53.590;10.004;2024-02-14T23:17:11;28.17;;;16.10;;
239;SDS011;104;53.590;10.004;2024-02-14T23:19:39;28.50;;;16.20;;
239;SDS011;104;53.590;10.004;2024-02-14T23:22:06;31.30;;;16.10;;
239;SDS011;104;53.590;10.004;2024-02-14T23:24:33;28.57;;;16.10;;
239;SDS011;104;53.590;10.004;2024-02-14T23:27:01;29.67;;;16.10;;
239;SDS011;104;53.590;10.004;2024-02-14T23:29:30;29.60;;;16.50;;
239;SDS011;104;53.590;10.004;2024-02-14T23:31:57;24.80;;;15.40;;
239;SDS011;104;53.590;10.004;2024-02-14T23:34:24;27.47;;;15.93;;
239;SDS011;104;53.590;10.004;2024-02-14T23:36:51;29.40;;;16.13;;
239;SDS011;104;53.590;10.004;2024-02-14T23:39:19;27.70;;;15.90;;
239;SDS011;104;53.590;10.004;2024-02-14T23:41:46;26.13;;;14.83;;
239;SDS011;104;53.590;10.004;2024-02-14T23:44:13;28.13;;;17.20;;
239;SDS011;104;53.590;10.004;2024-02-14T23:46:42;33.40;;;15.83;;
239;SDS011;104;53.590;10.004;2024-02-14T23:49:09;29.40;;;16.07;;
239;SDS011;104;53.590;10.004;2024-02-14T23:51:36;26.63;;;16.13;;
239;SDS011;104;53.590;10.004;2024-02-14T23:54:03;27.80;;;15.67;;
239;SDS011;104;53.590;10.004;2024-02-14T23:56:31;28.33;;;16.23;;
239;SDS011;104;53.590;10.004;2024-02-14T23:58:58;29.10;;;15.80;;
